Aviation Digital Data Service (ADDS)

Output produced by METARs form (1938 UTC 23 January 2019)
found at http://www.aviationweather.gov/metar/data/
 
METAR text: ZPPP 231900Z 22005MPS CAVOK 07/02 Q1020 NOSIG
Conditions at: ZPPP (KUNMING/WUJIABA , CN) observed 1900 UTC 23 January 2019
Temperature: 7.0°C (45°F)
Dewpoint: 2.0°C (36°F) [RH = 70%]
Pressure (altimeter): 30.12 inches Hg (1020.0 mb)
Winds: from the SW (220 degrees) at 12 MPH (10 knots; 5.1 m/s)
Visibility: 6 or more miles (10+ km)
Ceiling: ceiling and visibility are OK
Clouds: unknown
Weather: no significant weather observed at this time

METAR text: ZPPP 231800Z 22007MPS CAVOK 08/02 Q1021 NOSIG
Conditions at: ZPPP (KUNMING/WUJIABA , CN) observed 1800 UTC 23 January 2019
Temperature: 8.0°C (46°F)
Dewpoint: 2.0°C (36°F) [RH = 66%]
Pressure (altimeter): 30.15 inches Hg (1021.0 mb)
Winds: from the SW (220 degrees) at 16 MPH (14 knots; 7.2 m/s)
Visibility: 6 or more miles (10+ km)
Ceiling: ceiling and visibility are OK
Clouds: unknown
Weather: no significant weather observed at this time

METAR text: ZPPP 231700Z 21006MPS CAVOK 08/02 Q1021 NOSIG
Conditions at: ZPPP (KUNMING/WUJIABA , CN) observed 1700 UTC 23 January 2019
Temperature: 8.0°C (46°F)
Dewpoint: 2.0°C (36°F) [RH = 66%]
Pressure (altimeter): 30.15 inches Hg (1021.0 mb)
Winds: from the SSW (210 degrees) at 14 MPH (12 knots; 6.2 m/s)
Visibility: 6 or more miles (10+ km)
Ceiling: ceiling and visibility are OK
Clouds: unknown
Weather: no significant weather observed at this time

METAR text: ZPPP 231600Z 21006MPS CAVOK 08/02 Q1021 NOSIG
Conditions at: ZPPP (KUNMING/WUJIABA , CN) observed 1600 UTC 23 January 2019
Temperature: 8.0°C (46°F)
Dewpoint: 2.0°C (36°F) [RH = 66%]
Pressure (altimeter): 30.15 inches Hg (1021.0 mb)
Winds: from the SSW (210 degrees) at 14 MPH (12 knots; 6.2 m/s)
Visibility: 6 or more miles (10+ km)
Ceiling: ceiling and visibility are OK
Clouds: unknown
Weather: no significant weather observed at this time

METAR text: ZPPP 231500Z 21006MPS CAVOK 09/02 Q1021 NOSIG
Conditions at: ZPPP (KUNMING/WUJIABA , CN) observed 1500 UTC 23 January 2019
Temperature: 9.0°C (48°F)
Dewpoint: 2.0°C (36°F) [RH = 61%]
Pressure (altimeter): 30.15 inches Hg (1021.0 mb)
Winds: from the SSW (210 degrees) at 14 MPH (12 knots; 6.2 m/s)
Visibility: 6 or more miles (10+ km)
Ceiling: ceiling and visibility are OK
Clouds: unknown
Weather: no significant weather observed at this time

METAR text: ZPPP 231400Z 20006MPS CAVOK 10/02 Q1021 NOSIG
Conditions at: ZPPP (KUNMING/WUJIABA , CN) observed 1400 UTC 23 January 2019
Temperature: 10.0°C (50°F)
Dewpoint: 2.0°C (36°F) [RH = 57%]
Pressure (altimeter): 30.15 inches Hg (1021.0 mb)
Winds: from the SSW (200 degrees) at 14 MPH (12 knots; 6.2 m/s)
Visibility: 6 or more miles (10+ km)
Ceiling: ceiling and visibility are OK
Clouds: unknown
Weather: no significant weather observed at this time

METAR text: ZPPP 231300Z 19005MPS CAVOK 10/00 Q1020 NOSIG
Conditions at: ZPPP (KUNMING/WUJIABA , CN) observed 1300 UTC 23 January 2019
Temperature: 10.0°C (50°F)
Dewpoint: 0.0°C (32°F) [RH = 50%]
Pressure (altimeter): 30.12 inches Hg (1020.0 mb)
Winds: from the S (190 degrees) at 12 MPH (10 knots; 5.1 m/s)
Visibility: 6 or more miles (10+ km)
Ceiling: ceiling and visibility are OK
Clouds: unknown
Weather: no significant weather observed at this time

METAR text: ZPPP 231200Z 21005MPS CAVOK 11/M00 Q1020 NOSIG
Conditions at: ZPPP (KUNMING/WUJIABA , CN) observed 1200 UTC 23 January 2019
Temperature: 11.0°C (52°F)
Dewpoint: 0.0°C (32°F) [RH = 47%]
Pressure (altimeter): 30.12 inches Hg (1020.0 mb)
Winds: from the SSW (210 degrees) at 12 MPH (10 knots; 5.1 m/s)
Visibility: 6 or more miles (10+ km)
Ceiling: ceiling and visibility are OK
Clouds: unknown
Weather: no significant weather observed at this time

METAR text: ZPPP 231100Z 21007MPS CAVOK 12/M00 Q1019 NOSIG
Conditions at: ZPPP (KUNMING/WUJIABA , CN) observed 1100 UTC 23 January 2019
Temperature: 12.0°C (54°F)
Dewpoint: 0.0°C (32°F) [RH = 44%]
Pressure (altimeter): 30.09 inches Hg (1019.0 mb)
Winds: from the SSW (210 degrees) at 16 MPH (14 knots; 7.2 m/s)
Visibility: 6 or more miles (10+ km)
Ceiling: ceiling and visibility are OK
Clouds: unknown
Weather: no significant weather observed at this time

METAR text: ZPPP 231000Z 21008MPS CAVOK 15/00 Q1018 NOSIG
Conditions at: ZPPP (KUNMING/WUJIABA , CN) observed 1000 UTC 23 January 2019
Temperature: 15.0°C (59°F)
Dewpoint: 0.0°C (32°F) [RH = 36%]
Pressure (altimeter): 30.06 inches Hg (1018.0 mb)
Winds: from the SSW (210 degrees) at 18 MPH (16 knots; 8.2 m/s)
Visibility: 6 or more miles (10+ km)
Ceiling: ceiling and visibility are OK
Clouds: unknown
Weather: no significant weather observed at this time

METAR text: ZPPP 230900Z 21008MPS CAVOK 16/00 Q1018 NOSIG
Conditions at: ZPPP (KUNMING/WUJIABA , CN) observed 0900 UTC 23 January 2019
Temperature: 16.0°C (61°F)
Dewpoint: 0.0°C (32°F) [RH = 34%]
Pressure (altimeter): 30.06 inches Hg (1018.0 mb)
Winds: from the SSW (210 degrees) at 18 MPH (16 knots; 8.2 m/s)
Visibility: 6 or more miles (10+ km)
Ceiling: ceiling and visibility are OK
Clouds: unknown
Weather: no significant weather observed at this time

METAR text: ZPPP 230800Z 22007MPS 190V250 CAVOK 16/00 Q1018 NOSIG
Conditions at: ZPPP (KUNMING/WUJIABA , CN) observed 0800 UTC 23 January 2019
Temperature: 16.0°C (61°F)
Dewpoint: 0.0°C (32°F) [RH = 34%]
Pressure (altimeter): 30.06 inches Hg (1018.0 mb)
Winds: from the SW (220 degrees) at 16 MPH (14 knots; 7.2 m/s)
Visibility: 6 or more miles (10+ km)
Ceiling: ceiling and visibility are OK
Clouds: unknown
Weather: no significant weather observed at this time

METAR text: ZPPP 230700Z 22007MPS CAVOK 17/00 Q1019 NOSIG
Conditions at: ZPPP (KUNMING/WUJIABA , CN) observed 0700 UTC 23 January 2019
Temperature: 17.0°C (63°F)
Dewpoint: 0.0°C (32°F) [RH = 32%]
Pressure (altimeter): 30.09 inches Hg (1019.0 mb)
Winds: from the SW (220 degrees) at 16 MPH (14 knots; 7.2 m/s)
Visibility: 6 or more miles (10+ km)
Ceiling: ceiling and visibility are OK
Clouds: unknown
Weather: no significant weather observed at this time

METAR text: ZPPP 230600Z 21007MPS 170V230 CAVOK 15/00 Q1020 NOSIG
Conditions at: ZPPP (KUNMING/WUJIABA , CN) observed 0600 UTC 23 January 2019
Temperature: 15.0°C (59°F)
Dewpoint: 0.0°C (32°F) [RH = 36%]
Pressure (altimeter): 30.12 inches Hg (1020.0 mb)
Winds: from the SSW (210 degrees) at 16 MPH (14 knots; 7.2 m/s)
Visibility: 6 or more miles (10+ km)
Ceiling: ceiling and visibility are OK
Clouds: unknown
Weather: no significant weather observed at this time

METAR text: ZPPP 230500Z 22006MPS 170V260 CAVOK 14/02 Q1021 NOSIG
Conditions at: ZPPP (KUNMING/WUJIABA , CN) observed 0500 UTC 23 January 2019
Temperature: 14.0°C (57°F)
Dewpoint: 2.0°C (36°F) [RH = 44%]
Pressure (altimeter): 30.15 inches Hg (1021.0 mb)
Winds: from the SW (220 degrees) at 14 MPH (12 knots; 6.2 m/s)
Visibility: 6 or more miles (10+ km)
Ceiling: ceiling and visibility are OK
Clouds: unknown
Weather: no significant weather observed at this time

METAR text: ZPPP 230400Z 22007MPS CAVOK 13/03 Q1022 NOSIG
Conditions at: ZPPP (KUNMING/WUJIABA , CN) observed 0400 UTC 23 January 2019
Temperature: 13.0°C (55°F)
Dewpoint: 3.0°C (37°F) [RH = 51%]
Pressure (altimeter): 30.18 inches Hg (1022.0 mb)
Winds: from the SW (220 degrees) at 16 MPH (14 knots; 7.2 m/s)
Visibility: 6 or more miles (10+ km)
Ceiling: ceiling and visibility are OK
Clouds: unknown
Weather: no significant weather observed at this time

METAR text: ZPPP 230300Z 22008MPS CAVOK 11/04 Q1023 NOSIG
Conditions at: ZPPP (KUNMING/WUJIABA , CN) observed 0300 UTC 23 January 2019
Temperature: 11.0°C (52°F)
Dewpoint: 4.0°C (39°F) [RH = 62%]
Pressure (altimeter): 30.21 inches Hg (1023.0 mb)
Winds: from the SW (220 degrees) at 18 MPH (16 knots; 8.2 m/s)
Visibility: 6 or more miles (10+ km)
Ceiling: ceiling and visibility are OK
Clouds: unknown
Weather: no significant weather observed at this time

METAR text: ZPPP 230200Z 22007MPS CAVOK 09/05 Q1023 NOSIG
Conditions at: ZPPP (KUNMING/WUJIABA , CN) observed 0200 UTC 23 January 2019
Temperature: 9.0°C (48°F)
Dewpoint: 5.0°C (41°F) [RH = 76%]
Pressure (altimeter): 30.21 inches Hg (1023.0 mb)
Winds: from the SW (220 degrees) at 16 MPH (14 knots; 7.2 m/s)
Visibility: 6 or more miles (10+ km)
Ceiling: ceiling and visibility are OK
Clouds: unknown
Weather: no significant weather observed at this time

METAR text: ZPPP 230100Z 22006MPS CAVOK 07/05 Q1023 NOSIG
Conditions at: ZPPP (KUNMING/WUJIABA , CN) observed 0100 UTC 23 January 2019
Temperature: 7.0°C (45°F)
Dewpoint: 5.0°C (41°F) [RH = 87%]
Pressure (altimeter): 30.21 inches Hg (1023.0 mb)
Winds: from the SW (220 degrees) at 14 MPH (12 knots; 6.2 m/s)
Visibility: 6 or more miles (10+ km)
Ceiling: ceiling and visibility are OK
Clouds: unknown
Weather: no significant weather observed at this time

METAR text: ZPPP 230000Z 22006MPS CAVOK 06/04 Q1022 NOSIG
Conditions at: ZPPP (KUNMING/WUJIABA , CN) observed 0000 UTC 23 January 2019
Temperature: 6.0°C (43°F)
Dewpoint: 4.0°C (39°F) [RH = 87%]
Pressure (altimeter): 30.18 inches Hg (1022.0 mb)
Winds: from the SW (220 degrees) at 14 MPH (12 knots; 6.2 m/s)
Visibility: 6 or more miles (10+ km)
Ceiling: ceiling and visibility are OK
Clouds: unknown
Weather: no significant weather observed at this time

METAR text: ZPPP 222300Z 22006MPS 9999 SCT030 04/03 Q1022 NOSIG
Conditions at: ZPPP (KUNMING/WUJIABA , CN) observed 2300 UTC 22 January 2019
Temperature: 4.0°C (39°F)
Dewpoint: 3.0°C (37°F) [RH = 93%]
Pressure (altimeter): 30.18 inches Hg (1022.0 mb)
Winds: from the SW (220 degrees) at 14 MPH (12 knots; 6.2 m/s)
Visibility: 6 or more miles (10+ km)
Ceiling: at least 12,000 feet AGL
Clouds: scattered clouds at 3000 feet AGL
Weather: no significant weather observed at this time

METAR text: ZPPP 222200Z 21006MPS 9999 SCT020 SCT036 06/05 Q1021 NOSIG
Conditions at: ZPPP (KUNMING/WUJIABA , CN) observed 2200 UTC 22 January 2019
Temperature: 6.0°C (43°F)
Dewpoint: 5.0°C (41°F) [RH = 93%]
Pressure (altimeter): 30.15 inches Hg (1021.0 mb)
Winds: from the SSW (210 degrees) at 14 MPH (12 knots; 6.2 m/s)
Visibility: 6 or more miles (10+ km)
Ceiling: at least 12,000 feet AGL
Clouds: scattered clouds at 2000 feet AGL
scattered clouds at 3600 feet AGL
Weather: no significant weather observed at this time

METAR text: ZPPP 222100Z 21005MPS 9999 SCT020 SCT036 06/04 Q1021 NOSIG
Conditions at: ZPPP (KUNMING/WUJIABA , CN) observed 2100 UTC 22 January 2019
Temperature: 6.0°C (43°F)
Dewpoint: 4.0°C (39°F) [RH = 87%]
Pressure (altimeter): 30.15 inches Hg (1021.0 mb)
Winds: from the SSW (210 degrees) at 12 MPH (10 knots; 5.1 m/s)
Visibility: 6 or more miles (10+ km)
Ceiling: at least 12,000 feet AGL
Clouds: scattered clouds at 2000 feet AGL
scattered clouds at 3600 feet AGL
Weather: no significant weather observed at this time

METAR text: ZPPP 222000Z 22004MPS 9999 FEW020 SCT036 05/04 Q1021 NOSIG
Conditions at: ZPPP (KUNMING/WUJIABA , CN) observed 2000 UTC 22 January 2019
Temperature: 5.0°C (41°F)
Dewpoint: 4.0°C (39°F) [RH = 93%]
Pressure (altimeter): 30.15 inches Hg (1021.0 mb)
Winds: from the SW (220 degrees) at 9 MPH (8 knots; 4.1 m/s)
Visibility: 6 or more miles (10+ km)
Ceiling: at least 12,000 feet AGL
Clouds: few clouds at 2000 feet AGL
scattered clouds at 3600 feet AGL
Weather: no significant weather observed at this time

METAR text: ZPPP 221900Z 23004MPS 9999 SCT030 06/04 Q1022 NOSIG
Conditions at: ZPPP (KUNMING/WUJIABA , CN) observed 1900 UTC 22 January 2019
Temperature: 6.0°C (43°F)
Dewpoint: 4.0°C (39°F) [RH = 87%]
Pressure (altimeter): 30.18 inches Hg (1022.0 mb)
Winds: from the SW (230 degrees) at 9 MPH (8 knots; 4.1 m/s)
Visibility: 6 or more miles (10+ km)
Ceiling: at least 12,000 feet AGL
Clouds: scattered clouds at 3000 feet AGL
Weather: no significant weather observed at this time

METAR text: ZPPP 221800Z 22004MPS 9999 SCT030 07/05 Q1022 NOSIG
Conditions at: ZPPP (KUNMING/WUJIABA , CN) observed 1800 UTC 22 January 2019
Temperature: 7.0°C (45°F)
Dewpoint: 5.0°C (41°F) [RH = 87%]
Pressure (altimeter): 30.18 inches Hg (1022.0 mb)
Winds: from the SW (220 degrees) at 9 MPH (8 knots; 4.1 m/s)
Visibility: 6 or more miles (10+ km)
Ceiling: at least 12,000 feet AGL
Clouds: scattered clouds at 3000 feet AGL
Weather: no significant weather observed at this time

METAR text: ZPPP 221700Z 21005MPS 9999 SCT030 08/05 Q1022 NOSIG
Conditions at: ZPPP (KUNMING/WUJIABA , CN) observed 1700 UTC 22 January 2019
Temperature: 8.0°C (46°F)
Dewpoint: 5.0°C (41°F) [RH = 81%]
Pressure (altimeter): 30.18 inches Hg (1022.0 mb)
Winds: from the SSW (210 degrees) at 12 MPH (10 knots; 5.1 m/s)
Visibility: 6 or more miles (10+ km)
Ceiling: at least 12,000 feet AGL
Clouds: scattered clouds at 3000 feet AGL
Weather: no significant weather observed at this time

METAR text: ZPPP 221600Z 19004MPS 8000 FEW030 08/05 Q1022 NOSIG
Conditions at: ZPPP (KUNMING/WUJIABA , CN) observed 1600 UTC 22 January 2019
Temperature: 8.0°C (46°F)
Dewpoint: 5.0°C (41°F) [RH = 81%]
Pressure (altimeter): 30.18 inches Hg (1022.0 mb)
Winds: from the S (190 degrees) at 9 MPH (8 knots; 4.1 m/s)
Visibility: 5 miles ( 8 km)
Ceiling: at least 12,000 feet AGL
Clouds: few clouds at 3000 feet AGL
Weather: no significant weather observed at this time

METAR text: ZPPP 221500Z 21003MPS 8000 NSC 08/05 Q1022 NOSIG
Conditions at: ZPPP (KUNMING/WUJIABA , CN) observed 1500 UTC 22 January 2019
Temperature: 8.0°C (46°F)
Dewpoint: 5.0°C (41°F) [RH = 81%]
Pressure (altimeter): 30.18 inches Hg (1022.0 mb)
Winds: from the SSW (210 degrees) at 7 MPH (6 knots; 3.1 m/s)
Visibility: 5 miles ( 8 km)
Ceiling: at least 12,000 feet AGL
Clouds: sky clear below 12,000 feet AGL
Weather: no significant weather observed at this time

METAR text: ZPPP 221400Z 21006MPS CAVOK 09/06 Q1021 NOSIG
Conditions at: ZPPP (KUNMING/WUJIABA , CN) observed 1400 UTC 22 January 2019
Temperature: 9.0°C (48°F)
Dewpoint: 6.0°C (43°F) [RH = 81%]
Pressure (altimeter): 30.15 inches Hg (1021.0 mb)
Winds: from the SSW (210 degrees) at 14 MPH (12 knots; 6.2 m/s)
Visibility: 6 or more miles (10+ km)
Ceiling: ceiling and visibility are OK
Clouds: unknown
Weather: no significant weather observed at this time

METAR text: ZPPP 221300Z 22005MPS 9999 FEW030 09/05 Q1021 NOSIG
Conditions at: ZPPP (KUNMING/WUJIABA , CN) observed 1300 UTC 22 January 2019
Temperature: 9.0°C (48°F)
Dewpoint: 5.0°C (41°F) [RH = 76%]
Pressure (altimeter): 30.15 inches Hg (1021.0 mb)
Winds: from the SW (220 degrees) at 12 MPH (10 knots; 5.1 m/s)
Visibility: 6 or more miles (10+ km)
Ceiling: at least 12,000 feet AGL
Clouds: few clouds at 3000 feet AGL
Weather: no significant weather observed at this time

METAR text: ZPPP 221200Z 22007MPS 9999 FEW030 10/04 Q1020 NOSIG
Conditions at: ZPPP (KUNMING/WUJIABA , CN) observed 1200 UTC 22 January 2019
Temperature: 10.0°C (50°F)
Dewpoint: 4.0°C (39°F) [RH = 66%]
Pressure (altimeter): 30.12 inches Hg (1020.0 mb)
Winds: from the SW (220 degrees) at 16 MPH (14 knots; 7.2 m/s)
Visibility: 6 or more miles (10+ km)
Ceiling: at least 12,000 feet AGL
Clouds: few clouds at 3000 feet AGL
Weather: no significant weather observed at this time

METAR text: ZPPP 221100Z 22008MPS 9999 SCT030 11/05 Q1020 NOSIG
Conditions at: ZPPP (KUNMING/WUJIABA , CN) observed 1100 UTC 22 January 2019
Temperature: 11.0°C (52°F)
Dewpoint: 5.0°C (41°F) [RH = 66%]
Pressure (altimeter): 30.12 inches Hg (1020.0 mb)
Winds: from the SW (220 degrees) at 18 MPH (16 knots; 8.2 m/s)
Visibility: 6 or more miles (10+ km)
Ceiling: at least 12,000 feet AGL
Clouds: scattered clouds at 3000 feet AGL
Weather: no significant weather observed at this time

METAR text: ZPPP 221000Z 22007MPS 9999 SCT030 13/04 Q1020 NOSIG
Conditions at: ZPPP (KUNMING/WUJIABA , CN) observed 1000 UTC 22 January 2019
Temperature: 13.0°C (55°F)
Dewpoint: 4.0°C (39°F) [RH = 54%]
Pressure (altimeter): 30.12 inches Hg (1020.0 mb)
Winds: from the SW (220 degrees) at 16 MPH (14 knots; 7.2 m/s)
Visibility: 6 or more miles (10+ km)
Ceiling: at least 12,000 feet AGL
Clouds: scattered clouds at 3000 feet AGL
Weather: no significant weather observed at this time

METAR text: ZPPP 220900Z 23011MPS 9999 SCT030 13/03 Q1020 NOSIG
Conditions at: ZPPP (KUNMING/WUJIABA , CN) observed 0900 UTC 22 January 2019
Temperature: 13.0°C (55°F)
Dewpoint: 3.0°C (37°F) [RH = 51%]
Pressure (altimeter): 30.12 inches Hg (1020.0 mb)
Winds: from the SW (230 degrees) at 24 MPH (21 knots; 10.8 m/s)
Visibility: 6 or more miles (10+ km)
Ceiling: at least 12,000 feet AGL
Clouds: scattered clouds at 3000 feet AGL
Weather: no significant weather observed at this time

METAR text: ZPPP 220800Z 24010MPS 9999 BKN030 14/03 Q1020 NOSIG
Conditions at: ZPPP (KUNMING/WUJIABA , CN) observed 0800 UTC 22 January 2019
Temperature: 14.0°C (57°F)
Dewpoint: 3.0°C (37°F) [RH = 47%]
Pressure (altimeter): 30.12 inches Hg (1020.0 mb)
Winds: from the WSW (240 degrees) at 22 MPH (19 knots; 9.8 m/s)
Visibility: 6 or more miles (10+ km)
Ceiling: 3000 feet AGL
Clouds: broken clouds at 3000 feet AGL
Weather: no significant weather observed at this time

Forecast for: ZPPP (KUNMING/WUJIABA , CN)
Text: TAF ZPPP 231313Z 2318/2418 22006MPS 9999 FEW026 TX17/2408Z TN04/2323Z
Forecast period: 1800 UTC 23 January 2019 to 1800 UTC 24 January 2019
Forecast type: FROM: standard forecast or significant change
Winds: from the SW (220 degrees) at 14 MPH (12 knots; 6.2 m/s)
Visibility: 6 or more miles 10+ km)
Ceiling: at least 12,000 feet AGL
Clouds: few clouds at 2600 feet AGL
Weather: no significant weather forecast for this period